Time;durP1;ratioP1;P1;durP2;ratioP2;P2;SDS_P1;SDS_P2;PMS_P1;PMS_P2;Temp;Humidity;BMP_temperature;BMP_pressure;BME280_temperature;BME280_humidity;BME280_pressure;Samples;Min_cycle;Max_cycle;Signal;HPM_P1;HPM_P2
2023/01/23 00:01:41;;;;;;;10.07;8.40;;;2.20;1.00;;;;;;5089173;28;20197;-77
2023/01/23 00:04:12;;;;;;;8.00;7.07;;;2.20;99.90;;;;;;5090420;28;20769;-77
2023/01/23 00:06:40;;;;;;;6.80;6.10;;;2.20;1.00;;;;;;5095808;28;20189;-75
2023/01/23 00:09:09;;;;;;;8.82;7.45;;;2.30;99.90;;;;;;5077273;28;20208;-76
2023/01/23 00:11:37;;;;;;;7.80;7.00;;;2.30;1.00;;;;;;5090029;28;20201;-75
2023/01/23 00:14:06;;;;;;;8.88;7.95;;;2.30;99.90;;;;;;5090085;28;20216;-77
2023/01/23 00:16:34;;;;;;;8.38;7.60;;;2.20;1.00;;;;;;5090145;28;20220;-78
2023/01/23 00:19:02;;;;;;;9.07;8.18;;;2.20;1.00;;;;;;5083709;28;20200;-76
2023/01/23 00:21:31;;;;;;;9.10;7.57;;;2.30;99.90;;;;;;5093038;28;20194;-78
2023/01/23 00:24:01;;;;;;;6.97;6.28;;;2.20;33.00;;;;;;5088512;28;20228;-77
2023/01/23 00:26:32;;;;;;;8.57;7.40;;;2.30;1.00;;;;;;5088394;27;20278;-76
2023/01/23 00:29:01;;;;;;;8.45;7.75;;;2.30;99.90;;;;;;5091616;28;20254;-75
2023/01/23 00:31:32;;;;;;;8.60;7.70;;;2.30;1.00;;;;;;5087121;28;20211;-75
2023/01/23 00:34:03;;;;;;;11.48;8.00;;;2.30;1.00;;;;;;5091857;28;20239;-77
2023/01/23 00:36:34;;;;;;;10.48;8.00;;;2.30;1.00;;;;;;5084152;28;20270;-77
2023/01/23 00:39:03;;;;;;;7.25;6.50;;;2.20;99.90;;;;;;5089913;28;20198;-77
2023/01/23 00:41:31;;;;;;;8.75;7.32;;;2.10;1.00;;;;;;5097548;28;20201;-77
2023/01/23 00:44:00;;;;;;;8.45;7.60;;;2.20;1.00;;;;;;5092269;28;20229;-77
2023/01/23 00:46:29;;;;;;;7.82;7.03;;;2.10;99.90;;;;;;5090706;28;20716;-77
2023/01/23 00:48:58;;;;;;;8.50;7.60;;;2.10;99.90;;;;;;5093748;28;20310;-77
2023/01/23 00:51:26;;;;;;;9.35;8.55;;;2.00;99.90;;;;;;5093697;28;20617;-78
2023/01/23 00:53:54;;;;;;;8.85;7.10;;;2.10;26.00;;;;;;5087173;28;20216;-76
2023/01/23 00:56:23;;;;;;;8.30;7.50;;;2.00;1.00;;;;;;5090595;28;20215;-76
2023/01/23 00:58:51;;;;;;;7.53;6.22;;;2.10;99.90;;;;;;5092900;28;20233;-75
2023/01/23 01:01:21;;;;;;;9.80;7.80;;;2.10;99.90;;;;;;5087930;28;20291;-75
2023/01/23 01:03:50;;;;;;;7.55;6.82;;;1.90;99.90;;;;;;5093214;28;20224;-77
2023/01/23 01:06:19;;;;;;;8.40;7.60;;;2.00;99.90;;;;;;5095593;28;20273;-77
2023/01/23 01:08:47;;;;;;;8.57;6.80;;;2.00;99.90;;;;;;5095260;28;20211;-75
2023/01/23 01:11:15;;;;;;;8.10;7.30;;;1.80;99.90;;;;;;5093445;28;20203;-77
2023/01/23 01:13:45;;;;;;;7.28;6.57;;;1.80;1.00;;;;;;5098831;28;20224;-76
2023/01/23 01:16:13;;;;;;;9.68;8.65;;;1.90;3.10;;;;;;5094587;28;20665;-75
2023/01/23 01:18:41;;;;;;;8.10;7.30;;;2.00;1.00;;;;;;5096865;28;20250;-77
2023/01/23 01:21:13;;;;;;;7.97;7.20;;;2.10;99.90;;;;;;5098870;28;20207;-77
2023/01/23 01:23:42;;;;;;;8.57;7.45;;;2.00;1.00;;;;;;5102661;28;20217;-78
2023/01/23 01:26:10;;;;;;;8.20;7.40;;;2.00;1.00;;;;;;5098135;28;20226;-76
2023/01/23 01:28:40;;;;;;;12.23;8.02;;;2.00;1.00;;;;;;5095095;28;20731;-77
2023/01/23 01:31:11;;;;;;;11.60;8.20;;;2.00;1.00;;;;;;5094837;28;20208;-78
2023/01/23 01:33:41;;;;;;;9.05;7.25;;;2.00;1.00;;;;;;5095817;27;20252;-76
2023/01/23 01:36:12;;;;;;;7.78;7.07;;;2.00;74.00;;;;;;5089685;27;20627;-76
2023/01/23 01:38:40;;;;;;;9.70;8.05;;;2.00;1.00;;;;;;5091237;27;20296;-77
2023/01/23 01:41:09;;;;;;;8.77;7.05;;;2.00;99.90;;;;;;5090130;28;20206;-78
2023/01/23 01:43:38;;;;;;;9.93;7.75;;;2.10;99.90;;;;;;5095140;28;20277;-77
2023/01/23 01:46:25;;;;;;;8.10;7.22;;;2.10;99.90;;;;;;5082936;28;20201;-77
2023/01/23 01:49:06;;;;;;;7.50;6.82;;;2.00;99.90;;;;;;5091595;28;20205;-76
2023/01/23 01:51:43;;;;;;;8.73;7.55;;;2.00;99.90;;;;;;5090752;28;20196;-77
2023/01/23 01:54:24;;;;;;;10.90;7.80;;;2.00;1.00;;;;;;5090981;28;20631;-78
2023/01/23 01:56:58;;;;;;;8.77;6.68;;;2.00;32.30;;;;;;5091785;28;20205;-77
2023/01/23 01:59:30;;;;;;;9.80;7.10;;;2.10;1.00;;;;;;5090999;28;20230;-78
2023/01/23 02:02:03;;;;;;;8.15;7.35;;;2.00;99.90;;;;;;5070592;28;20198;-77
2023/01/23 02:04:33;;;;;;;7.30;6.55;;;2.10;65.00;;;;;;5098323;28;20551;-77
2023/01/23 02:07:09;;;;;;;8.50;7.40;;;2.00;1.00;;;;;;5097992;28;20207;-76
2023/01/23 02:09:38;;;;;;;8.80;6.63;;;2.10;1.00;;;;;;5102726;28;20210;-76
2023/01/23 02:12:06;;;;;;;8.57;7.60;;;2.00;1.00;;;;;;5099947;28;20217;-77
2023/01/23 02:14:35;;;;;;;8.90;7.70;;;2.10;97.80;;;;;;5097982;28;20453;-75
2023/01/23 02:17:03;;;;;;;9.57;7.38;;;2.10;99.90;;;;;;5095177;28;20209;-77
2023/01/23 02:19:40;;;;;;;10.13;6.97;;;2.10;99.90;;;;;;5090535;28;20307;-78
2023/01/23 02:22:28;;;;;;;8.60;7.30;;;2.20;1.00;;;;;;5094060;28;20225;-76
2023/01/23 02:25:03;;;;;;;9.63;7.53;;;2.10;99.90;;;;;;5094849;28;20193;-78
2023/01/23 02:27:32;;;;;;;9.25;7.47;;;2.10;1.00;;;;;;5095734;28;20287;-77
2023/01/23 02:30:00;;;;;;;9.18;8.27;;;2.10;99.90;;;;;;5095716;28;20220;-77
2023/01/23 02:32:28;;;;;;;8.38;7.50;;;2.20;1.00;;;;;;5092375;28;20312;-77
2023/01/23 02:34:59;;;;;;;10.73;8.45;;;2.20;99.90;;;;;;5093930;28;20195;-76
2023/01/23 02:37:32;;;;;;;9.77;8.40;;;2.10;99.40;;;;;;5093402;27;20648;-78
2023/01/23 02:40:02;;;;;;;8.55;7.70;;;2.20;99.90;;;;;;5095260;28;20723;-78
2023/01/23 02:42:32;;;;;;;7.43;6.78;;;2.10;1.00;;;;;;5093445;28;20969;-78
2023/01/23 02:45:00;;;;;;;11.25;8.23;;;2.10;1.00;;;;;;5096653;28;20255;-77
2023/01/23 02:47:28;;;;;;;9.68;7.40;;;2.10;26.70;;;;;;5095058;28;20646;-77
2023/01/23 02:49:57;;;;;;;10.52;8.23;;;2.20;1.00;;;;;;5094105;28;20223;-77
2023/01/23 02:52:25;;;;;;;8.13;7.32;;;2.30;1.00;;;;;;5098636;28;20221;-78
2023/01/23 02:54:53;;;;;;;10.10;7.80;;;2.20;1.00;;;;;;5095509;28;20200;-74
2023/01/23 02:57:21;;;;;;;10.77;8.38;;;2.20;73.30;;;;;;5092562;28;20198;-77
2023/01/23 03:02:37;;;;;;;12.57;8.88;;;2.10;13.00;;;;;;5096566;28;20282;-79
2023/01/23 03:05:06;;;;;;;10.00;8.30;;;2.20;25.90;;;;;;5095967;28;20225;-77
2023/01/23 03:07:34;;;;;;;9.85;7.82;;;2.20;99.90;;;;;;5092271;28;20677;-78
2023/01/23 03:10:03;;;;;;;10.88;8.07;;;2.20;4.90;;;;;;5100017;28;20194;-78
2023/01/23 03:12:31;;;;;;;10.68;8.50;;;2.10;1.00;;;;;;5094416;28;20228;-77
2023/01/23 03:15:01;;;;;;;11.95;9.50;;;2.10;99.90;;;;;;5098175;28;20201;-76
2023/01/23 03:17:29;;;;;;;12.25;9.25;;;2.00;1.00;;;;;;5095445;28;20284;-76
2023/01/23 03:19:57;;;;;;;10.40;8.57;;;2.10;99.90;;;;;;5093725;28;20227;-77
2023/01/23 03:22:26;;;;;;;16.05;9.50;;;2.10;99.90;;;;;;5102636;28;20225;-77
2023/01/23 03:24:56;;;;;;;10.10;8.82;;;2.10;1.00;;;;;;5095109;28;20224;-77
2023/01/23 03:27:24;;;;;;;11.85;8.98;;;2.10;99.90;;;;;;5095561;28;20197;-77
2023/01/23 03:32:40;;;;;;;10.02;8.50;;;2.10;1.00;;;;;;5097630;28;20301;-76
2023/01/23 03:35:12;;;;;;;13.25;8.80;;;2.10;1.00;;;;;;5093119;28;20207;-77
2023/01/23 03:37:40;;;;;;;11.23;9.23;;;2.00;99.90;;;;;;5096457;28;20761;-77
2023/01/23 03:43:01;;;;;;;10.95;8.35;;;2.20;1.00;;;;;;5087103;28;20567;-77
2023/01/23 03:45:29;;;;;;;11.85;10.02;;;2.10;99.90;;;;;;5090443;28;20192;-78
2023/01/23 03:47:58;;;;;;;12.10;8.60;;;2.10;19.20;;;;;;5085371;28;20290;-77
2023/01/23 03:50:27;;;;;;;11.73;9.38;;;2.10;99.90;;;;;;5090491;28;20210;-77
2023/01/23 03:52:55;;;;;;;11.90;9.20;;;2.20;1.00;;;;;;5089952;28;20246;-77
2023/01/23 03:55:23;;;;;;;11.88;8.88;;;2.20;99.90;;;;;;5088177;28;20299;-78
2023/01/23 03:57:51;;;;;;;12.75;9.10;;;2.20;89.20;;;;;;5085562;27;20298;-76
2023/01/23 04:00:19;;;;;;;11.50;9.27;;;2.10;99.90;;;;;;5088518;28;20315;-77
2023/01/23 04:02:48;;;;;;;9.73;8.73;;;2.10;99.90;;;;;;5067800;28;20262;-76
2023/01/23 04:05:18;;;;;;;15.55;10.27;;;2.10;99.90;;;;;;5083287;27;20201;-77
2023/01/23 04:07:46;;;;;;;13.70;10.00;;;2.10;1.00;;;;;;5098730;28;20228;-77
2023/01/23 04:10:14;;;;;;;11.90;9.88;;;2.10;75.00;;;;;;5096463;28;20200;-77
2023/01/23 04:12:42;;;;;;;10.32;8.35;;;2.20;1.00;;;;;;5091402;28;20213;-77
2023/01/23 04:15:12;;;;;;;12.70;9.52;;;2.20;1.00;;;;;;5087250;28;20262;-77
2023/01/23 04:17:40;;;;;;;11.35;9.52;;;2.20;99.90;;;;;;5085992;28;20196;-77
2023/01/23 04:20:10;;;;;;;10.68;8.80;;;2.30;99.90;;;;;;5085105;27;20213;-75
2023/01/23 04:22:40;;;;;;;10.65;8.32;;;2.20;99.90;;;;;;5084432;28;20917;-77
2023/01/23 04:25:09;;;;;;;12.05;8.80;;;2.10;99.90;;;;;;5084256;28;20211;-77
2023/01/23 04:27:37;;;;;;;12.45;8.77;;;2.10;1.00;;;;;;5086405;28;20217;-77
2023/01/23 04:30:06;;;;;;;10.35;8.40;;;2.20;99.90;;;;;;5087283;28;20238;-76
2023/01/23 04:32:34;;;;;;;11.93;9.57;;;2.00;1.00;;;;;;5087052;28;20228;-76
2023/01/23 04:35:03;;;;;;;12.55;9.30;;;2.00;32.40;;;;;;5087587;28;20316;-77
2023/01/23 04:37:31;;;;;;;12.07;8.95;;;2.00;99.90;;;;;;5089361;28;20259;-78
2023/01/23 04:40:00;;;;;;;11.98;9.23;;;2.10;1.00;;;;;;5084999;28;20788;-77
2023/01/23 04:42:28;;;;;;;11.48;9.45;;;2.10;1.00;;;;;;5079680;28;20258;-78
2023/01/23 04:44:56;;;;;;;13.15;10.00;;;2.10;1.00;;;;;;5084089;27;20197;-75
2023/01/23 04:47:24;;;;;;;15.07;9.68;;;2.10;25.60;;;;;;5084825;28;20760;-78
2023/01/23 04:49:52;;;;;;;11.35;9.32;;;2.20;99.90;;;;;;5087295;28;20249;-77
2023/01/23 04:52:20;;;;;;;13.57;8.38;;;2.20;26.00;;;;;;5081711;28;20305;-77
2023/01/23 04:54:49;;;;;;;13.65;11.20;;;2.20;1.00;;;;;;5094078;28;20205;-76
2023/01/23 04:57:18;;;;;;;12.38;9.68;;;2.20;1.00;;;;;;5095443;28;20202;-76
2023/01/23 04:59:46;;;;;;;11.93;9.05;;;2.10;8.30;;;;;;5099678;28;20216;-76
2023/01/23 05:02:15;;;;;;;14.70;10.57;;;2.10;1.00;;;;;;5090524;28;20520;-76
2023/01/23 05:04:43;;;;;;;11.80;9.32;;;2.10;99.90;;;;;;5091591;28;20252;-77
2023/01/23 05:07:11;;;;;;;14.82;11.15;;;2.20;99.90;;;;;;5088886;28;20279;-76
2023/01/23 05:09:40;;;;;;;14.48;10.07;;;2.20;24.50;;;;;;5089249;28;20212;-75
2023/01/23 05:12:08;;;;;;;11.85;9.80;;;2.30;99.90;;;;;;5094386;28;20229;-76
2023/01/23 05:14:37;;;;;;;12.05;9.00;;;2.20;1.00;;;;;;5094014;28;20204;-77
2023/01/23 05:17:06;;;;;;;13.85;11.43;;;2.20;99.90;;;;;;5094069;28;20206;-77
2023/01/23 05:19:34;;;;;;;12.95;9.70;;;2.20;1.00;;;;;;5094016;28;20220;-77
2023/01/23 05:22:02;;;;;;;11.40;9.63;;;2.20;99.90;;;;;;5094467;28;20201;-76
2023/01/23 05:24:30;;;;;;;13.10;9.57;;;2.20;1.00;;;;;;5091810;28;20745;-77
2023/01/23 05:26:58;;;;;;;14.45;9.40;;;2.10;99.90;;;;;;5097224;28;20219;-77
2023/01/23 05:29:27;;;;;;;14.68;10.70;;;2.20;99.90;;;;;;5098118;28;20926;-77
2023/01/23 05:31:56;;;;;;;13.63;10.50;;;2.10;99.90;;;;;;5092809;28;20200;-78
2023/01/23 05:34:24;;;;;;;11.82;8.98;;;2.10;1.00;;;;;;5091690;28;20435;-78
2023/01/23 05:36:53;;;;;;;11.80;10.18;;;2.20;1.00;;;;;;5093339;28;20303;-77
2023/01/23 05:39:21;;;;;;;14.05;9.95;;;2.30;99.90;;;;;;5086954;28;20257;-77
2023/01/23 05:41:49;;;;;;;13.40;10.70;;;2.40;99.90;;;;;;5067645;28;20270;-78
2023/01/23 05:44:17;;;;;;;15.23;10.32;;;2.40;1.00;;;;;;5084937;28;20284;-76
2023/01/23 05:46:45;;;;;;;14.20;10.07;;;2.30;1.00;;;;;;5088331;28;20457;-76
2023/01/23 05:49:15;;;;;;;13.48;10.40;;;2.30;76.70;;;;;;5087244;28;20216;-77
2023/01/23 05:51:43;;;;;;;13.30;10.23;;;2.30;99.90;;;;;;5083600;28;20989;-75
2023/01/23 05:54:11;;;;;;;14.00;10.68;;;2.40;99.90;;;;;;5083401;28;20222;-75
2023/01/23 05:56:39;;;;;;;14.18;10.25;;;2.40;53.60;;;;;;5077746;28;20234;-76
2023/01/23 05:59:07;;;;;;;14.30;10.73;;;2.30;99.90;;;;;;5087305;28;20208;-76
2023/01/23 06:01:35;;;;;;;12.43;9.45;;;2.30;1.00;;;;;;5090296;28;20673;-76
2023/01/23 06:04:03;;;;;;;13.75;9.68;;;2.40;1.00;;;;;;5089777;28;20224;-77
2023/01/23 06:06:33;;;;;;;13.23;9.30;;;2.30;1.00;;;;;;5089658;28;20637;-76
2023/01/23 06:09:01;;;;;;;15.00;10.77;;;2.20;99.90;;;;;;5098638;28;20202;-76
2023/01/23 06:11:29;;;;;;;13.65;10.43;;;2.20;99.90;;;;;;5100180;28;20226;-76
2023/01/23 06:13:57;;;;;;;13.07;10.05;;;2.30;25.90;;;;;;5093583;28;20329;-76
2023/01/23 06:16:25;;;;;;;12.73;10.15;;;2.40;99.90;;;;;;5092618;27;20477;-77
2023/01/23 06:18:53;;;;;;;14.25;10.65;;;2.40;1.00;;;;;;5087895;28;20208;-77
2023/01/23 06:21:22;;;;;;;11.73;9.23;;;2.40;1.00;;;;;;5088401;28;20220;-77
2023/01/23 06:23:51;;;;;;;16.73;10.95;;;2.40;99.90;;;;;;5085649;27;21108;-77
2023/01/23 06:26:19;;;;;;;11.43;10.27;;;2.50;99.90;;;;;;5090627;28;20289;-78
2023/01/23 06:28:47;;;;;;;12.00;9.85;;;2.40;1.00;;;;;;5089554;28;20208;-79
2023/01/23 06:31:16;;;;;;;12.05;9.63;;;2.40;1.00;;;;;;5077419;28;20243;-77
2023/01/23 06:33:44;;;;;;;13.35;9.60;;;2.40;99.90;;;;;;5090631;28;20221;-78
2023/01/23 06:36:12;;;;;;;14.63;9.88;;;2.40;99.90;;;;;;5094006;28;20274;-77
2023/01/23 06:38:40;;;;;;;11.88;9.52;;;2.40;75.10;;;;;;5089260;28;20968;-76
2023/01/23 06:41:10;;;;;;;13.70;9.63;;;2.40;99.90;;;;;;5089143;27;20233;-78
2023/01/23 06:43:38;;;;;;;15.00;9.50;;;2.30;99.90;;;;;;5088147;28;20241;-77
2023/01/23 06:46:09;;;;;;;13.55;9.80;;;2.40;1.00;;;;;;5091493;27;20198;-77
2023/01/23 06:48:37;;;;;;;11.90;8.68;;;2.40;1.00;;;;;;5090854;28;20212;-76
2023/01/23 06:51:06;;;;;;;16.08;9.85;;;2.40;99.90;;;;;;5090423;28;20202;-77
2023/01/23 06:53:34;;;;;;;12.23;9.85;;;2.40;1.00;;;;;;5089126;28;20311;-78
2023/01/23 06:56:04;;;;;;;14.52;9.32;;;2.30;1.00;;;;;;5089013;28;20206;-76
2023/01/23 06:58:34;;;;;;;15.05;10.52;;;2.50;99.90;;;;;;5087800;28;20812;-77
2023/01/23 07:01:09;;;;;;;13.43;9.48;;;2.40;1.00;;;;;;5079488;28;20308;-77
2023/01/23 07:03:37;;;;;;;13.85;9.38;;;2.30;1.00;;;;;;5092868;28;20202;-78
2023/01/23 07:06:07;;;;;;;10.80;9.63;;;2.40;1.00;;;;;;5077584;28;20205;-77
2023/01/23 07:08:36;;;;;;;14.48;10.52;;;2.40;1.00;;;;;;5094094;28;20210;-76
2023/01/23 07:11:05;;;;;;;14.60;10.38;;;2.40;1.00;;;;;;5096795;28;20198;-77
2023/01/23 07:13:35;;;;;;;13.55;9.32;;;2.40;1.00;;;;;;5095943;28;20643;-77
2023/01/23 07:16:04;;;;;;;11.98;9.10;;;2.40;92.60;;;;;;5094548;28;20210;-78
2023/01/23 07:18:32;;;;;;;15.60;10.60;;;2.30;99.90;;;;;;5093145;28;20197;-77
2023/01/23 07:21:00;;;;;;;12.15;9.23;;;2.30;99.90;;;;;;5093881;28;20206;-77
2023/01/23 07:23:28;;;;;;;16.90;10.55;;;2.30;99.90;;;;;;5093831;28;20229;-76
2023/01/23 07:25:59;;;;;;;13.65;9.90;;;2.30;96.70;;;;;;5097415;28;20202;-77
2023/01/23 07:28:27;;;;;;;14.68;10.20;;;2.30;1.00;;;;;;5097426;28;20213;-77
2023/01/23 07:30:57;;;;;;;13.40;8.80;;;2.40;1.00;;;;;;5098379;28;20196;-77
2023/01/23 07:33:26;;;;;;;11.68;8.20;;;2.40;1.00;;;;;;5097317;28;20225;-76
2023/01/23 07:35:54;;;;;;;13.05;9.48;;;2.40;99.90;;;;;;5091784;28;20240;-77
2023/01/23 07:38:23;;;;;;;11.63;8.57;;;2.40;99.90;;;;;;5098747;28;20209;-77
2023/01/23 07:40:51;;;;;;;12.60;8.73;;;2.40;1.00;;;;;;5091598;27;20697;-78
2023/01/23 07:43:19;;;;;;;12.90;9.38;;;2.50;1.00;;;;;;5093198;28;20237;-77
2023/01/23 07:45:48;;;;;;;13.40;8.95;;;2.50;99.90;;;;;;5091026;28;20200;-78
2023/01/23 07:48:17;;;;;;;13.30;10.45;;;2.50;1.00;;;;;;5090099;28;20216;-77
2023/01/23 07:50:46;;;;;;;11.95;9.50;;;2.50;1.00;;;;;;5088639;28;20202;-77
2023/01/23 07:53:15;;;;;;;11.30;8.32;;;2.50;99.90;;;;;;5087577;28;20324;-76
2023/01/23 07:55:44;;;;;;;14.18;11.05;;;2.50;1.00;;;;;;5090107;28;20289;-77
2023/01/23 07:58:12;;;;;;;16.08;10.18;;;2.50;1.00;;;;;;5087984;28;20272;-78
2023/01/23 08:00:41;;;;;;;16.63;9.60;;;2.50;1.00;;;;;;5088103;28;20212;-76
2023/01/23 08:03:09;;;;;;;18.30;11.13;;;2.50;99.90;;;;;;5069471;28;20225;-76
2023/01/23 08:05:39;;;;;;;16.42;10.38;;;2.50;99.90;;;;;;5091317;27;20260;-78
2023/01/23 08:08:10;;;;;;;11.93;9.60;;;2.60;1.00;;;;;;5094563;27;20236;-79
2023/01/23 08:10:41;;;;;;;15.27;9.52;;;2.50;1.00;;;;;;5096627;28;20727;-76
2023/01/23 08:13:10;;;;;;;15.25;10.07;;;2.60;1.00;;;;;;5093209;28;20630;-77
2023/01/23 08:15:38;;;;;;;59.75;19.00;;;2.60;99.90;;;;;;5095246;28;20204;-78
2023/01/23 08:18:07;;;;;;;14.85;9.43;;;2.60;1.00;;;;;;5093560;28;20200;-77
2023/01/23 08:20:35;;;;;;;16.25;9.40;;;2.60;99.90;;;;;;5096458;27;20218;-77
2023/01/23 08:23:06;;;;;;;14.52;9.60;;;2.50;99.90;;;;;;5095427;27;20228;-77
2023/01/23 08:25:34;;;;;;;13.65;9.88;;;2.60;1.00;;;;;;5078921;28;20290;-79
2023/01/23 08:28:05;;;;;;;19.17;13.18;;;2.50;1.00;;;;;;5096187;27;20836;-77
2023/01/23 08:30:33;;;;;;;21.90;12.30;;;2.60;99.90;;;;;;5087719;28;20553;-76
2023/01/23 08:33:03;;;;;;;12.98;10.50;;;2.60;1.00;;;;;;5080145;28;20217;-77
2023/01/23 08:35:32;;;;;;;14.63;9.25;;;2.60;1.00;;;;;;5087744;28;20249;-76
2023/01/23 08:38:02;;;;;;;15.32;9.70;;;2.70;1.00;;;;;;5085950;28;20200;-78
2023/01/23 08:40:33;;;;;;;14.10;9.18;;;2.60;1.00;;;;;;5085389;28;20194;-77
2023/01/23 08:43:02;;;;;;;14.63;9.82;;;2.70;1.00;;;;;;5089628;28;20249;-76
2023/01/23 08:45:31;;;;;;;14.18;9.82;;;2.70;1.00;;;;;;5086024;28;20202;-78
2023/01/23 08:48:01;;;;;;;17.75;9.40;;;2.60;1.00;;;;;;5097235;28;20268;-76
2023/01/23 08:50:30;;;;;;;13.93;9.40;;;2.60;1.00;;;;;;5088931;28;20252;-78
2023/01/23 08:52:58;;;;;;;13.23;8.90;;;2.60;63.20;;;;;;5088134;28;20708;-76
2023/01/23 08:55:27;;;;;;;14.77;9.60;;;2.80;1.00;;;;;;5087281;28;20651;-76
2023/01/23 08:57:57;;;;;;;13.30;9.30;;;2.80;1.00;;;;;;5092421;28;20385;-77
2023/01/23 09:00:25;;;;;;;11.93;9.35;;;2.80;1.00;;;;;;5092059;28;20198;-77
2023/01/23 09:02:55;;;;;;;13.20;9.40;;;2.80;1.00;;;;;;5096446;28;20226;-77
2023/01/23 09:05:24;;;;;;;13.10;10.00;;;2.70;1.00;;;;;;5096660;28;20204;-77
2023/01/23 09:07:52;;;;;;;15.20;10.48;;;2.70;1.00;;;;;;5098893;28;20233;-76
2023/01/23 09:10:20;;;;;;;15.45;9.60;;;2.80;1.00;;;;;;5098000;28;20210;-78
2023/01/23 09:12:51;;;;;;;13.13;9.63;;;2.90;99.90;;;;;;5093903;28;20212;-77
2023/01/23 09:15:22;;;;;;;16.63;10.98;;;2.80;99.90;;;;;;5095423;28;20203;-76
2023/01/23 09:17:51;;;;;;;16.25;10.40;;;2.80;99.90;;;;;;5096284;28;20571;-77
2023/01/23 09:20:21;;;;;;;14.27;9.50;;;2.70;1.00;;;;;;5094303;28;20213;-77
2023/01/23 09:22:51;;;;;;;13.35;9.43;;;2.80;1.00;;;;;;5094324;28;20548;-77
2023/01/23 09:25:20;;;;;;;13.18;9.40;;;2.90;99.90;;;;;;5095418;28;20448;-78
2023/01/23 09:27:49;;;;;;;13.10;9.10;;;3.00;1.00;;;;;;5099092;28;20202;-77
2023/01/23 09:30:18;;;;;;;16.98;10.70;;;3.00;99.90;;;;;;5092416;28;20302;-77
2023/01/23 09:32:49;;;;;;;18.00;10.57;;;3.00;99.90;;;;;;5081508;28;20298;-76
2023/01/23 09:35:18;;;;;;;22.48;13.65;;;3.00;99.90;;;;;;5087154;28;20558;-77
2023/01/23 09:38:03;;;;;;;15.13;9.90;;;3.10;99.90;;;;;;5093220;28;20202;-77
2023/01/23 09:40:35;;;;;;;16.27;9.88;;;3.20;99.90;;;;;;5092590;28;20218;-76
2023/01/23 09:43:09;;;;;;;13.60;9.85;;;3.30;99.90;;;;;;5085985;28;20232;-76
2023/01/23 09:45:41;;;;;;;13.05;9.00;;;3.20;99.90;;;;;;5074167;28;20218;-77
2023/01/23 09:48:22;;;;;;;15.07;10.23;;;3.20;1.00;;;;;;5088174;28;21057;-78
2023/01/23 09:51:00;;;;;;;12.00;8.38;;;3.10;1.00;;;;;;5093778;27;20766;-77
2023/01/23 09:53:35;;;;;;;12.00;8.35;;;3.00;1.00;;;;;;5092794;27;20217;-76
2023/01/23 09:56:13;;;;;;;11.88;9.00;;;3.00;1.00;;;;;;5084962;28;20559;-76
2023/01/23 09:58:47;;;;;;;9.05;7.72;;;3.00;1.00;;;;;;5090259;28;20322;-76
2023/01/23 10:01:16;;;;;;;12.02;7.93;;;3.00;1.00;;;;;;5090733;28;20312;-79
2023/01/23 10:03:46;;;;;;;10.25;7.43;;;2.90;99.90;;;;;;5091454;27;20226;-76
2023/01/23 10:06:22;;;;;;;8.93;6.90;;;2.90;99.90;;;;;;5092754;27;20197;-76
2023/01/23 10:09:05;;;;;;;10.60;8.20;;;2.90;99.90;;;;;;5093512;27;20209;-78
2023/01/23 10:11:43;;;;;;;9.15;7.30;;;2.90;99.90;;;;;;5093507;27;20202;-77
2023/01/23 10:14:33;;;;;;;10.40;7.20;;;2.90;99.90;;;;;;5095674;27;20220;-79
2023/01/23 10:17:14;;;;;;;8.70;6.35;;;2.80;99.90;;;;;;5095529;27;20208;-78
2023/01/23 10:20:02;;;;;;;10.07;6.78;;;2.90;99.90;;;;;;5089940;27;20740;-75
2023/01/23 10:22:37;;;;;;;12.30;7.80;;;3.00;99.90;;;;;;5090824;27;20286;-76
2023/01/23 10:25:14;;;;;;;12.02;8.40;;;3.00;99.90;;;;;;5090959;27;20194;-76
2023/01/23 10:27:46;;;;;;;10.68;7.63;;;3.00;1.00;;;;;;5091492;27;20732;-77
2023/01/23 10:30:22;;;;;;;10.30;7.18;;;3.10;99.90;;;;;;5094103;27;20211;-78
2023/01/23 10:32:55;;;;;;;11.45;7.70;;;3.10;99.90;;;;;;5096107;27;21132;-76
2023/01/23 10:35:35;;;;;;;12.30;7.93;;;3.20;99.90;;;;;;5097165;27;20200;-77
2023/01/23 10:38:11;;;;;;;10.27;7.18;;;3.20;99.90;;;;;;5094063;28;20189;-77
2023/01/23 10:43:27;;;;;;;10.73;7.13;;;3.20;99.90;;;;;;5093574;27;20788;-77
2023/01/23 10:45:56;;;;;;;6.55;5.78;;;3.20;99.90;;;;;;5094810;28;20661;-76
2023/01/23 10:48:29;;;;;;;7.20;6.50;;;3.20;99.90;;;;;;5096036;27;20213;-77
2023/01/23 10:51:00;;;;;;;8.00;7.15;;;3.20;99.90;;;;;;5094690;27;20201;-77
2023/01/23 10:53:29;;;;;;;9.55;6.72;;;3.30;99.90;;;;;;5090756;27;20218;-77
2023/01/23 10:56:00;;;;;;;8.48;5.60;;;3.30;99.90;;;;;;5093750;27;20570;-75
2023/01/23 10:58:36;;;;;;;8.65;6.68;;;3.30;99.90;;;;;;5076456;28;20268;-77
2023/01/23 11:01:06;;;;;;;10.55;8.00;;;3.20;99.90;;;;;;5093487;27;20246;-77
2023/01/23 11:03:45;;;;;;;7.93;6.63;;;3.30;99.90;;;;;;5103137;28;20265;-76
2023/01/23 11:06:18;;;;;;;11.82;8.43;;;3.20;1.00;;;;;;5095364;27;20209;-78
2023/01/23 11:08:52;;;;;;;12.57;8.80;;;3.30;99.90;;;;;;5094790;28;20205;-76
2023/01/23 11:11:24;;;;;;;9.07;7.28;;;3.30;99.90;;;;;;5097302;28;20197;-78
2023/01/23 11:14:05;;;;;;;7.93;7.13;;;3.30;99.90;;;;;;5092576;28;20214;-77
2023/01/23 11:16:35;;;;;;;11.50;7.15;;;3.30;99.90;;;;;;5095850;28;20251;-75
2023/01/23 11:19:12;;;;;;;11.25;8.05;;;3.30;99.90;;;;;;5104237;28;20210;-75
2023/01/23 11:21:52;;;;;;;10.35;7.65;;;3.30;99.90;;;;;;5096687;28;20198;-77
2023/01/23 11:24:27;;;;;;;12.32;8.20;;;3.40;99.90;;;;;;5093898;28;20669;-77
2023/01/23 11:27:19;;;;;;;18.48;12.10;;;3.40;99.90;;;;;;5093076;28;20205;-79
2023/01/23 11:30:25;;;;;;;13.98;9.50;;;3.30;99.90;;;;;;5092854;28;20358;-77
2023/01/23 11:32:58;;;;;;;15.20;8.73;;;3.40;99.90;;;;;;5089102;28;20206;-78
2023/01/23 11:35:44;;;;;;;12.98;9.10;;;3.40;99.90;;;;;;5096551;28;20959;-77
2023/01/23 11:38:19;;;;;;;14.00;8.90;;;3.40;99.90;;;;;;5097922;27;20714;-75
2023/01/23 11:40:57;;;;;;;12.43;9.15;;;3.30;99.90;;;;;;5096362;28;20208;-76
2023/01/23 11:43:26;;;;;;;12.35;8.63;;;3.30;99.90;;;;;;5095187;28;20228;-79
2023/01/23 11:46:09;;;;;;;14.43;9.70;;;3.30;99.90;;;;;;5091034;28;20726;-77
2023/01/23 11:48:52;;;;;;;13.32;9.73;;;3.30;99.90;;;;;;5099136;28;20201;-78
2023/01/23 11:51:26;;;;;;;12.05;9.43;;;3.10;99.90;;;;;;5095624;28;20210;-78
2023/01/23 11:54:05;;;;;;;13.90;9.32;;;3.20;99.90;;;;;;5089757;28;20263;-77
2023/01/23 11:56:46;;;;;;;11.63;8.77;;;3.30;99.90;;;;;;5094106;27;20251;-77
2023/01/23 11:59:53;;;;;;;13.88;9.70;;;3.30;99.90;;;;;;5099041;28;20225;-77
2023/01/23 12:02:56;;;;;;;11.57;8.32;;;3.20;99.90;;;;;;5096341;27;20220;-77
2023/01/23 12:05:45;;;;;;;15.90;9.85;;;3.20;99.90;;;;;;5096249;27;20246;-77
2023/01/23 12:08:24;;;;;;;13.13;8.77;;;3.20;99.90;;;;;;5089535;28;20213;-77
2023/01/23 12:11:11;;;;;;;12.00;9.10;;;3.30;99.90;;;;;;5094938;27;20197;-79
2023/01/23 12:13:56;;;;;;;11.30;8.55;;;3.30;99.90;;;;;;5097481;27;20468;-77
2023/01/23 12:16:33;;;;;;;12.40;8.52;;;3.20;99.90;;;;;;5087058;28;20206;-76
2023/01/23 12:19:13;;;;;;;15.30;10.05;;;3.20;1.00;;;;;;5082215;28;20228;-79
2023/01/23 12:21:53;;;;;;;14.20;9.75;;;3.30;1.00;;;;;;5082560;27;20227;-79
2023/01/23 12:24:37;;;;;;;13.50;10.00;;;3.30;99.90;;;;;;5084339;28;20222;-77
2023/01/23 12:27:16;;;;;;;14.48;9.82;;;3.40;99.90;;;;;;5086169;28;20321;-75
2023/01/23 12:30:07;;;;;;;13.82;9.98;;;3.40;99.90;;;;;;5084739;28;20258;-78
2023/01/23 12:32:48;;;;;;;16.23;10.27;;;3.40;99.90;;;;;;5086183;28;20234;-79
2023/01/23 12:35:40;;;;;;;13.23;9.85;;;3.50;99.90;;;;;;5091066;28;20202;-77
2023/01/23 12:38:23;;;;;;;13.25;8.90;;;3.50;99.90;;;;;;5087953;28;20212;-78
2023/01/23 12:40:58;;;;;;;12.32;10.40;;;3.50;99.90;;;;;;5083593;28;20198;-77
2023/01/23 12:43:36;;;;;;;11.00;9.90;;;3.60;99.90;;;;;;5086098;28;20218;-75
2023/01/23 12:46:08;;;;;;;14.35;9.82;;;3.60;99.90;;;;;;5086339;28;20197;-78
2023/01/23 12:48:43;;;;;;;11.90;8.63;;;3.70;99.90;;;;;;5101153;27;20210;-78
2023/01/23 12:51:19;;;;;;;11.82;8.98;;;3.70;1.00;;;;;;5094076;28;20194;-78
2023/01/23 12:53:51;;;;;;;13.75;9.98;;;3.80;99.90;;;;;;5095573;28;20227;-79
2023/01/23 12:56:24;;;;;;;12.45;8.55;;;3.80;99.90;;;;;;5093226;28;20201;-78
2023/01/23 12:59:01;;;;;;;12.27;8.93;;;3.80;99.90;;;;;;5096274;28;20287;-77
2023/01/23 13:01:46;;;;;;;15.63;8.98;;;3.90;99.90;;;;;;5113069;28;20284;-77
2023/01/23 13:04:28;;;;;;;11.20;8.75;;;3.90;99.90;;;;;;5097143;28;20303;-77
2023/01/23 13:07:09;;;;;;;14.23;9.43;;;3.90;99.90;;;;;;5093502;28;20210;-78
2023/01/23 13:09:50;;;;;;;10.65;7.95;;;4.00;99.90;;;;;;5076345;28;20697;-78
2023/01/23 13:12:22;;;;;;;11.05;8.10;;;3.90;99.90;;;;;;5093764;28;20308;-76
2023/01/23 13:14:53;;;;;;;13.48;9.20;;;3.90;99.90;;;;;;5095120;28;20194;-78
2023/01/23 13:17:44;;;;;;;12.23;9.65;;;3.90;99.90;;;;;;5096658;28;20882;-77
2023/01/23 13:23:24;;;;;;;11.70;8.38;;;3.80;99.90;;;;;;5095650;28;20223;-76
2023/01/23 13:26:35;;;;;;;10.60;7.85;;;3.80;99.90;;;;;;5097321;28;20407;-78
2023/01/23 13:29:06;;;;;;;12.98;8.63;;;3.80;99.90;;;;;;5085269;28;20210;-78